Time;durP1;ratioP1;P1;durP2;ratioP2;P2;SDS_P1;SDS_P2;PMS_P1;PMS_P2;Temp;Humidity;BMP_temperature;BMP_pressure;BME280_temperature;BME280_humidity;BME280_pressure;Samples;Min_cycle;Max_cycle;Signal;HPM_P1;HPM_P2
2022/03/26 00:01:58;;;;;;;58.90;31.20;;;9.50;98.10;;;;;;5014111;28;20664;-73
2022/03/26 00:04:48;;;;;;;56.03;32.33;;;9.50;98.50;;;;;;5011914;28;20224;-72
2022/03/26 00:07:37;;;;;;;60.40;33.23;;;9.40;99.50;;;;;;5011251;28;21032;-73
2022/03/26 00:10:26;;;;;;;60.10;32.90;;;9.40;99.90;;;;;;5003949;28;20684;-73
2022/03/26 00:13:15;;;;;;;58.57;32.07;;;9.30;99.90;;;;;;5002857;28;20282;-73
2022/03/26 00:16:04;;;;;;;60.60;31.87;;;9.40;99.90;;;;;;5016840;28;20239;-74
2022/03/26 00:18:52;;;;;;;63.70;32.10;;;9.50;99.90;;;;;;5002478;28;20298;-74
2022/03/26 00:21:43;;;;;;;63.33;31.77;;;9.40;99.90;;;;;;5004693;28;20339;-75
2022/03/26 00:24:31;;;;;;;60.50;31.77;;;9.20;99.90;;;;;;5014235;28;20295;-74
2022/03/26 00:27:20;;;;;;;63.03;31.73;;;9.20;99.90;;;;;;5002505;28;20274;-72
2022/03/26 00:30:10;;;;;;;57.97;31.67;;;9.20;99.90;;;;;;5011791;28;20310;-74
2022/03/26 00:32:58;;;;;;;58.83;32.47;;;9.30;99.90;;;;;;5014374;28;20221;-74
2022/03/26 00:35:52;;;;;;;58.17;32.10;;;9.20;99.90;;;;;;5011417;28;20331;-74
2022/03/26 00:38:42;;;;;;;62.80;32.33;;;9.20;99.90;;;;;;5016863;28;20214;-76
2022/03/26 00:41:30;;;;;;;55.00;31.87;;;9.20;99.90;;;;;;5011305;28;21028;-76
2022/03/26 00:44:20;;;;;;;59.40;31.83;;;9.20;99.90;;;;;;5003265;28;20736;-74
2022/03/26 00:47:09;;;;;;;58.50;31.83;;;9.20;99.90;;;;;;5001510;28;20217;-74
2022/03/26 00:49:58;;;;;;;57.67;30.70;;;9.20;99.90;;;;;;5015680;28;20341;-74
2022/03/26 00:52:47;;;;;;;52.90;31.27;;;9.10;99.90;;;;;;5001023;28;21690;-74
2022/03/26 00:55:37;;;;;;;56.03;30.93;;;9.00;99.90;;;;;;5017296;28;20222;-74
2022/03/26 00:58:26;;;;;;;58.57;31.20;;;8.90;99.90;;;;;;5010600;28;20231;-74
2022/03/26 01:01:15;;;;;;;57.73;31.43;;;9.00;99.90;;;;;;5014276;28;20243;-74
2022/03/26 01:04:04;;;;;;;61.10;30.37;;;8.90;99.90;;;;;;5007289;28;20255;-74
2022/03/26 01:06:52;;;;;;;60.10;32.63;;;8.90;99.90;;;;;;5003849;28;20232;-74
2022/03/26 01:09:41;;;;;;;56.87;30.93;;;8.80;99.90;;;;;;5017986;28;20231;-73
2022/03/26 01:12:32;;;;;;;64.37;32.97;;;8.80;99.90;;;;;;5001653;28;20231;-76
2022/03/26 01:15:21;;;;;;;57.87;31.67;;;8.80;99.90;;;;;;5020463;28;20317;-69
2022/03/26 01:18:10;;;;;;;53.97;29.90;;;8.80;99.90;;;;;;5014999;28;20706;-68
2022/03/26 01:20:59;;;;;;;59.70;32.00;;;8.70;99.90;;;;;;5016216;28;20224;-68
2022/03/26 01:23:48;;;;;;;59.30;29.83;;;8.70;99.90;;;;;;5014349;28;20232;-70
2022/03/26 01:26:36;;;;;;;58.70;31.47;;;8.70;99.90;;;;;;5007366;28;20229;-70
2022/03/26 01:29:27;;;;;;;58.53;32.07;;;8.70;99.90;;;;;;5014880;28;20227;-71
2022/03/26 01:32:15;;;;;;;51.37;29.87;;;8.70;99.90;;;;;;5013009;28;20224;-70
2022/03/26 01:35:05;;;;;;;54.23;29.47;;;8.70;99.90;;;;;;5000961;28;20223;-72
2022/03/26 01:37:54;;;;;;;58.97;29.47;;;8.70;99.90;;;;;;5003821;28;20308;-71
2022/03/26 01:40:42;;;;;;;57.30;29.90;;;8.70;99.90;;;;;;5009194;28;20785;-72
2022/03/26 01:43:31;;;;;;;53.97;28.73;;;8.80;99.90;;;;;;5001270;28;20228;-72
2022/03/26 01:46:24;;;;;;;53.43;28.97;;;8.80;99.90;;;;;;5016807;28;20220;-73
2022/03/26 01:49:13;;;;;;;53.30;29.37;;;8.70;99.90;;;;;;5019983;28;20251;-72
2022/03/26 01:52:03;;;;;;;50.07;27.27;;;8.60;99.90;;;;;;5020221;28;20254;-72
2022/03/26 01:54:51;;;;;;;50.67;27.23;;;8.80;99.90;;;;;;5003551;28;20223;-71
2022/03/26 01:57:41;;;;;;;48.90;27.27;;;8.80;99.90;;;;;;5020091;28;20232;-71
2022/03/26 02:00:35;;;;;;;50.23;26.67;;;8.70;99.90;;;;;;5000942;28;20240;-71
2022/03/26 02:03:25;;;;;;;49.87;27.97;;;8.80;99.90;;;;;;4999721;28;20395;-72
2022/03/26 02:06:14;;;;;;;50.77;26.53;;;8.80;99.90;;;;;;5008712;28;20240;-74
2022/03/26 02:09:04;;;;;;;48.43;26.77;;;8.90;99.90;;;;;;5011083;28;20597;-74
2022/03/26 02:11:53;;;;;;;48.43;26.93;;;8.90;99.90;;;;;;5007152;28;20214;-74
2022/03/26 02:14:41;;;;;;;49.37;27.23;;;8.80;99.90;;;;;;5015451;28;20343;-73
2022/03/26 02:17:30;;;;;;;46.00;25.33;;;8.80;99.90;;;;;;4999725;28;20236;-74
2022/03/26 02:20:22;;;;;;;51.00;27.40;;;8.70;99.90;;;;;;5010530;28;20235;-73
2022/03/26 02:23:11;;;;;;;48.37;27.00;;;8.70;99.90;;;;;;5016438;28;20223;-74
2022/03/26 02:25:59;;;;;;;46.40;26.37;;;8.70;99.90;;;;;;4996677;28;20227;-74
2022/03/26 02:28:49;;;;;;;47.37;26.17;;;8.60;99.90;;;;;;5015649;28;20228;-73
2022/03/26 02:31:38;;;;;;;44.23;25.17;;;8.70;99.90;;;;;;5013532;28;20257;-73
2022/03/26 02:34:27;;;;;;;50.83;26.73;;;8.60;99.90;;;;;;5000037;28;20218;-73
2022/03/26 02:37:41;;;;;;;47.83;26.30;;;8.70;99.90;;;;;;5010987;28;20224;-73
2022/03/26 02:40:29;;;;;;;52.43;26.93;;;8.70;99.90;;;;;;4999527;28;20242;-73
2022/03/26 02:43:18;;;;;;;47.63;26.40;;;8.70;99.90;;;;;;5007595;28;20233;-71
2022/03/26 02:46:07;;;;;;;50.50;27.97;;;8.60;99.90;;;;;;4998733;28;20227;-72
2022/03/26 02:48:55;;;;;;;48.90;27.30;;;8.60;99.90;;;;;;5014625;28;20745;-71
2022/03/26 02:51:44;;;;;;;50.03;27.53;;;8.60;99.90;;;;;;5014775;28;20229;-72
2022/03/26 02:54:35;;;;;;;47.17;26.83;;;8.60;99.90;;;;;;5002711;28;20238;-70
2022/03/26 02:57:25;;;;;;;45.33;26.13;;;8.70;99.90;;;;;;4986591;28;20740;-70
2022/03/26 03:00:15;;;;;;;51.77;25.47;;;8.70;99.90;;;;;;5014348;28;20287;-69
2022/03/26 03:03:04;;;;;;;47.97;26.70;;;8.70;99.90;;;;;;4998055;28;20228;-73
2022/03/26 03:05:52;;;;;;;41.40;26.57;;;8.70;99.90;;;;;;5003716;28;20669;-72
2022/03/26 03:08:41;;;;;;;50.90;26.30;;;8.60;99.90;;;;;;5011305;28;20229;-73
2022/03/26 03:11:32;;;;;;;42.63;26.03;;;8.60;99.90;;;;;;5017726;28;20656;-73
2022/03/26 03:14:20;;;;;;;56.83;26.47;;;8.60;99.90;;;;;;5013763;28;20217;-74
2022/03/26 03:17:09;;;;;;;49.27;27.53;;;8.60;99.90;;;;;;5010648;28;20782;-73
2022/03/26 03:19:58;;;;;;;53.83;27.63;;;8.60;99.90;;;;;;4996737;28;20254;-73
2022/03/26 03:22:47;;;;;;;50.60;28.10;;;8.60;99.90;;;;;;5015796;28;20218;-72
2022/03/26 03:25:35;;;;;;;48.43;26.90;;;8.70;99.90;;;;;;5009125;28;20307;-74
2022/03/26 03:28:29;;;;;;;48.70;27.43;;;8.60;99.90;;;;;;4989018;28;20232;-71
2022/03/26 03:31:17;;;;;;;49.63;27.00;;;8.60;99.90;;;;;;4986275;28;20236;-72
2022/03/26 03:34:06;;;;;;;49.70;26.73;;;8.70;99.90;;;;;;5006886;28;20222;-72
2022/03/26 03:36:55;;;;;;;50.43;26.80;;;8.80;99.90;;;;;;5005398;28;20231;-73
2022/03/26 03:39:43;;;;;;;53.33;26.57;;;8.80;99.90;;;;;;5014359;28;20668;-72
2022/03/26 03:42:32;;;;;;;43.87;25.47;;;8.70;99.90;;;;;;4991396;28;20230;-72
2022/03/26 03:45:22;;;;;;;53.57;26.27;;;8.80;99.90;;;;;;4999015;28;20224;-72
2022/03/26 03:48:11;;;;;;;44.17;25.30;;;8.80;99.90;;;;;;5014607;28;20597;-72
2022/03/26 03:50:59;;;;;;;49.70;27.53;;;8.80;99.90;;;;;;4999832;28;20760;-71
2022/03/26 03:53:48;;;;;;;49.60;27.57;;;8.80;99.90;;;;;;4999206;28;20228;-71
2022/03/26 03:56:38;;;;;;;49.60;27.47;;;8.80;99.90;;;;;;4996752;28;20232;-72
2022/03/26 03:59:26;;;;;;;53.20;27.50;;;8.70;99.90;;;;;;5013020;28;20251;-72
2022/03/26 04:02:20;;;;;;;50.50;26.50;;;8.70;99.90;;;;;;4996906;28;20233;-72
2022/03/26 04:05:10;;;;;;;46.63;25.80;;;8.70;99.90;;;;;;5012936;28;20225;-73
2022/03/26 04:08:08;;;;;;;47.90;25.97;;;8.80;99.90;;;;;;5008196;28;20227;-71
2022/03/26 04:10:56;;;;;;;48.53;27.13;;;8.70;99.90;;;;;;5013187;28;21144;-69
2022/03/26 04:13:46;;;;;;;48.20;25.27;;;8.80;99.90;;;;;;5008818;28;20232;-69
2022/03/26 04:16:38;;;;;;;44.83;26.07;;;8.80;99.90;;;;;;5012878;28;20240;-68
2022/03/26 04:19:28;;;;;;;42.10;24.83;;;8.70;99.90;;;;;;5003699;28;20240;-68
2022/03/26 04:22:21;;;;;;;44.40;25.77;;;8.70;99.90;;;;;;5009522;28;20313;-67
2022/03/26 04:25:11;;;;;;;47.53;25.30;;;8.70;99.90;;;;;;5010350;28;20235;-69
2022/03/26 04:27:59;;;;;;;49.40;26.37;;;8.70;99.90;;;;;;5006370;28;20221;-68
2022/03/26 04:30:51;;;;;;;49.47;25.53;;;8.70;99.90;;;;;;5007878;28;20229;-69
2022/03/26 04:33:40;;;;;;;44.57;25.27;;;8.70;99.90;;;;;;5012362;28;20301;-68
2022/03/26 04:36:31;;;;;;;52.93;25.60;;;8.70;99.90;;;;;;4998855;28;20230;-72
2022/03/26 04:39:20;;;;;;;44.60;24.70;;;8.70;99.90;;;;;;5013234;28;20756;-72
2022/03/26 04:42:09;;;;;;;50.20;26.10;;;8.80;99.90;;;;;;5014647;28;20228;-71
2022/03/26 04:44:58;;;;;;;52.73;26.20;;;8.70;99.90;;;;;;5012098;28;20218;-73
2022/03/26 04:47:46;;;;;;;45.97;25.97;;;8.70;99.90;;;;;;5012699;28;20232;-71
2022/03/26 04:50:39;;;;;;;48.70;25.33;;;8.60;99.90;;;;;;4999453;28;20225;-70
2022/03/26 04:53:29;;;;;;;54.43;25.03;;;8.60;99.90;;;;;;5012319;28;20222;-70
2022/03/26 04:56:18;;;;;;;44.97;25.47;;;8.70;99.90;;;;;;5012410;28;20282;-70
2022/03/26 04:59:07;;;;;;;49.53;25.37;;;8.60;99.90;;;;;;5014816;28;20240;-74
2022/03/26 05:01:55;;;;;;;48.47;25.93;;;8.60;99.90;;;;;;4999823;28;20226;-72
2022/03/26 05:04:44;;;;;;;46.03;25.43;;;8.60;99.90;;;;;;5003087;28;20233;-71
2022/03/26 05:07:49;;;;;;;49.07;26.20;;;8.60;99.90;;;;;;5002153;28;20714;-74
2022/03/26 05:10:39;;;;;;;47.83;25.17;;;8.60;99.90;;;;;;5005597;28;20234;-73
2022/03/26 05:13:28;;;;;;;46.17;25.17;;;8.60;99.90;;;;;;5001349;28;20237;-72
2022/03/26 05:16:16;;;;;;;50.57;25.47;;;8.60;99.90;;;;;;5018829;28;20695;-73
2022/03/26 05:19:05;;;;;;;50.80;25.70;;;8.60;99.90;;;;;;5018116;28;20850;-74
2022/03/26 05:21:54;;;;;;;51.67;27.20;;;8.60;99.90;;;;;;5018506;28;20222;-78
2022/03/26 05:24:42;;;;;;;45.40;24.63;;;8.70;99.90;;;;;;5015231;28;20228;-77
2022/03/26 05:27:32;;;;;;;46.73;25.43;;;8.70;99.90;;;;;;5017246;28;20225;-79
2022/03/26 05:30:22;;;;;;;46.83;24.87;;;8.70;99.90;;;;;;5015909;28;20239;-76
2022/03/26 05:33:11;;;;;;;44.60;24.60;;;8.80;99.90;;;;;;5012410;28;20235;-75
2022/03/26 05:36:00;;;;;;;45.60;25.43;;;8.90;99.90;;;;;;5022047;28;20929;-75
2022/03/26 05:38:49;;;;;;;48.47;25.63;;;8.90;99.90;;;;;;5019836;28;20246;-75
2022/03/26 05:41:38;;;;;;;43.43;25.43;;;9.00;99.90;;;;;;5019979;28;20228;-76
2022/03/26 05:44:28;;;;;;;45.07;24.13;;;9.10;99.90;;;;;;5022012;28;20585;-71
2022/03/26 05:47:16;;;;;;;47.47;23.90;;;9.20;99.90;;;;;;4994832;28;20239;-77
2022/03/26 05:50:07;;;;;;;45.60;23.90;;;9.10;99.90;;;;;;4995986;28;20324;-70
2022/03/26 05:52:56;;;;;;;44.23;23.53;;;9.30;99.90;;;;;;5009874;28;20298;-70
2022/03/26 05:55:45;;;;;;;45.47;22.60;;;9.30;99.90;;;;;;5001056;28;20226;-71
2022/03/26 05:58:34;;;;;;;47.87;23.97;;;9.40;99.90;;;;;;5004003;28;20229;-69
2022/03/26 06:01:24;;;;;;;49.28;24.17;;;9.40;99.90;;;;;;5014290;28;20356;-70
2022/03/26 06:04:13;;;;;;;44.67;24.27;;;9.30;99.90;;;;;;5014534;28;20604;-72
2022/03/26 06:07:01;;;;;;;43.37;24.57;;;9.30;99.90;;;;;;5008646;28;20308;-70
2022/03/26 06:09:50;;;;;;;42.47;24.17;;;9.50;99.90;;;;;;5008353;28;20914;-70
2022/03/26 06:12:39;;;;;;;43.73;24.07;;;9.50;99.90;;;;;;4989978;28;20229;-70
2022/03/26 06:15:28;;;;;;;44.00;24.70;;;9.50;99.90;;;;;;5014591;28;20709;-73
2022/03/26 06:18:34;;;;;;;47.53;24.53;;;9.50;99.90;;;;;;5001075;28;20308;-73
2022/03/26 06:21:22;;;;;;;42.00;24.77;;;9.70;99.90;;;;;;5012155;28;20233;-71
2022/03/26 06:24:12;;;;;;;42.08;25.33;;;9.70;99.90;;;;;;4997201;28;20217;-71
2022/03/26 06:27:01;;;;;;;42.78;25.02;;;9.80;99.90;;;;;;5013338;28;20305;-71
2022/03/26 06:29:50;;;;;;;49.90;25.10;;;9.80;99.90;;;;;;5010001;28;20221;-70
2022/03/26 06:32:38;;;;;;;42.50;22.73;;;9.90;99.90;;;;;;5012798;28;20269;-70
2022/03/26 06:35:29;;;;;;;41.53;23.08;;;9.90;99.90;;;;;;5014211;28;20243;-71
2022/03/26 06:38:18;;;;;;;41.50;23.77;;;10.00;99.90;;;;;;5005736;28;20234;-72
2022/03/26 06:41:07;;;;;;;42.17;23.33;;;10.10;99.90;;;;;;5011279;28;20222;-69
2022/03/26 06:43:55;;;;;;;41.05;23.15;;;10.20;99.90;;;;;;4994040;28;20708;-70
2022/03/26 06:46:44;;;;;;;47.72;23.98;;;10.30;99.90;;;;;;5007625;28;20230;-70
2022/03/26 06:49:33;;;;;;;44.75;22.88;;;10.30;99.90;;;;;;5006500;28;20763;-71
2022/03/26 06:52:23;;;;;;;43.22;21.48;;;10.40;99.90;;;;;;5013635;28;20249;-70
2022/03/26 06:55:12;;;;;;;50.65;20.77;;;10.60;99.90;;;;;;5001611;28;20219;-70
2022/03/26 06:58:01;;;;;;;37.50;19.77;;;10.70;99.90;;;;;;5007102;28;20244;-71
2022/03/26 07:00:50;;;;;;;41.05;20.00;;;10.80;99.90;;;;;;5016221;28;20274;-70
2022/03/26 07:03:38;;;;;;;32.17;18.85;;;10.80;99.90;;;;;;5000268;28;20225;-71
2022/03/26 07:06:27;;;;;;;43.53;18.25;;;11.00;99.90;;;;;;5016370;28;20581;-72
2022/03/26 07:09:17;;;;;;;37.70;18.45;;;11.10;99.90;;;;;;5005263;28;20236;-72
2022/03/26 07:12:07;;;;;;;42.75;17.67;;;11.30;99.90;;;;;;5015059;28;20215;-72
2022/03/26 07:14:56;;;;;;;39.30;17.85;;;11.50;99.90;;;;;;4997758;28;20237;-72
2022/03/26 07:17:45;;;;;;;46.45;18.58;;;11.80;99.90;;;;;;5005668;28;20224;-74
2022/03/26 07:20:34;;;;;;;39.30;17.00;;;11.70;99.90;;;;;;5011495;28;20953;-73
2022/03/26 07:23:22;;;;;;;37.80;18.42;;;11.70;99.90;;;;;;5014226;28;20522;-73
2022/03/26 07:26:13;;;;;;;43.30;17.58;;;11.60;99.90;;;;;;5011790;28;20248;-70
2022/03/26 07:29:02;;;;;;;48.80;17.52;;;11.80;99.90;;;;;;5014102;28;20534;-71
2022/03/26 07:31:51;;;;;;;44.40;17.88;;;12.00;99.90;;;;;;5011932;28;20229;-73
2022/03/26 07:34:40;;;;;;;39.75;17.08;;;12.00;99.90;;;;;;5006577;28;20222;-73
2022/03/26 07:37:30;;;;;;;42.00;17.75;;;12.10;99.90;;;;;;4992096;28;20222;-75
2022/03/26 07:40:19;;;;;;;40.03;17.63;;;12.30;99.90;;;;;;5010195;28;20218;-75
2022/03/26 07:43:09;;;;;;;39.88;17.48;;;12.70;99.90;;;;;;5011890;28;20213;-71
2022/03/26 07:46:00;;;;;;;37.83;18.70;;;12.40;99.90;;;;;;5000995;28;20210;-80
2022/03/26 07:48:50;;;;;;;42.92;19.33;;;12.60;99.90;;;;;;5004378;28;20218;-70
2022/03/26 07:51:38;;;;;;;35.78;18.65;;;13.70;99.90;;;;;;5016244;28;20228;-71
2022/03/26 07:54:27;;;;;;;45.08;19.17;;;14.50;99.90;;;;;;5017288;28;20242;-69
2022/03/26 07:57:16;;;;;;;39.50;18.70;;;15.90;99.90;;;;;;5002970;28;20554;-68
2022/03/26 08:00:09;;;;;;;37.50;17.88;;;17.50;99.90;;;;;;5017188;28;20229;-74
2022/03/26 08:03:00;;;;;;;41.28;17.88;;;17.00;99.90;;;;;;5013977;28;20225;-73
2022/03/26 08:05:49;;;;;;;31.38;17.60;;;16.80;99.90;;;;;;5014649;28;20544;-69
2022/03/26 08:08:40;;;;;;;32.22;18.17;;;16.40;99.90;;;;;;5016425;28;20222;-70
2022/03/26 08:11:29;;;;;;;31.65;17.30;;;16.40;99.90;;;;;;5001395;28;20228;-73
2022/03/26 08:14:18;;;;;;;33.35;18.33;;;17.00;99.70;;;;;;5000268;28;20755;-74
2022/03/26 08:17:08;;;;;;;34.40;17.55;;;17.60;98.40;;;;;;5019435;28;20228;-73
2022/03/26 08:19:56;;;;;;;35.35;18.00;;;18.40;95.30;;;;;;5009614;28;20225;-73
2022/03/26 08:22:45;;;;;;;30.92;17.17;;;19.30;91.50;;;;;;5020734;28;20236;-72
2022/03/26 08:28:40;;;;;;;34.28;17.92;;;18.40;91.50;;;;;;4999221;28;20659;-73
2022/03/26 08:31:32;;;;;;;33.42;17.85;;;17.80;91.40;;;;;;5005876;28;20234;-70
2022/03/26 08:34:22;;;;;;;29.20;17.80;;;17.80;92.10;;;;;;5017465;28;20240;-70
2022/03/26 08:37:11;;;;;;;32.53;17.90;;;17.00;91.90;;;;;;5012750;28;20388;-72
2022/03/26 08:40:00;;;;;;;30.38;16.98;;;17.70;93.40;;;;;;4997380;28;20228;-67
2022/03/26 08:42:51;;;;;;;28.00;16.05;;;18.50;90.20;;;;;;5012056;28;20240;-73
2022/03/26 08:45:41;;;;;;;27.02;15.82;;;17.40;91.60;;;;;;5015192;28;20664;-73
2022/03/26 08:48:31;;;;;;;27.77;15.15;;;16.30;93.70;;;;;;5001320;28;20218;-73
2022/03/26 08:51:21;;;;;;;20.60;12.95;;;15.60;96.20;;;;;;5020161;28;20228;-74
2022/03/26 08:54:09;;;;;;;24.92;13.80;;;15.00;98.90;;;;;;5012526;28;20253;-74
2022/03/26 08:56:58;;;;;;;20.27;12.35;;;15.00;99.90;;;;;;5008406;28;20253;-73
2022/03/26 08:59:47;;;;;;;22.63;12.15;;;15.20;99.90;;;;;;5016466;28;20633;-74
2022/03/26 09:02:36;;;;;;;26.58;12.10;;;15.60;99.90;;;;;;5015252;28;20214;-78
2022/03/26 09:05:25;;;;;;;26.95;12.85;;;15.20;99.90;;;;;;5014678;28;20225;-77
2022/03/26 09:08:15;;;;;;;17.50;12.40;;;15.00;99.90;;;;;;5014824;28;20335;-77
2022/03/26 09:11:05;;;;;;;27.65;13.18;;;14.90;99.90;;;;;;5019607;28;20255;-77
2022/03/26 09:13:54;;;;;;;22.20;13.00;;;14.60;99.90;;;;;;5002720;28;20305;-77
2022/03/26 09:16:43;;;;;;;22.08;14.25;;;14.50;99.90;;;;;;5016169;28;20237;-78
2022/03/26 09:19:32;;;;;;;28.05;14.98;;;14.30;99.90;;;;;;5011371;28;20253;-77
2022/03/26 09:22:23;;;;;;;27.27;15.88;;;14.20;99.90;;;;;;5017582;28;20225;-77
2022/03/26 09:25:17;;;;;;;31.67;15.43;;;14.20;99.90;;;;;;5015867;28;20228;-75
2022/03/26 09:28:06;;;;;;;29.15;15.82;;;14.00;99.90;;;;;;5020066;28;20214;-72
2022/03/26 09:30:55;;;;;;;29.60;17.17;;;14.10;99.90;;;;;;5014588;28;20698;-70
2022/03/26 09:33:43;;;;;;;27.13;16.25;;;14.10;99.90;;;;;;4992453;28;21032;-73
2022/03/26 09:36:32;;;;;;;32.80;17.38;;;14.00;99.90;;;;;;5001041;28;20222;-75
2022/03/26 09:39:21;;;;;;;33.28;18.77;;;14.20;99.90;;;;;;5015189;28;20229;-76
2022/03/26 09:42:12;;;;;;;34.65;19.15;;;14.10;99.90;;;;;;4997272;28;20316;-74
2022/03/26 09:45:03;;;;;;;33.42;18.40;;;14.00;99.90;;;;;;4989686;28;20230;-73
2022/03/26 09:47:54;;;;;;;31.75;17.98;;;13.90;99.90;;;;;;4994985;28;20234;-74
2022/03/26 09:50:47;;;;;;;32.28;18.52;;;13.70;99.90;;;;;;5004883;28;20219;-71
2022/03/26 09:53:36;;;;;;;31.63;18.00;;;13.70;99.90;;;;;;5007724;28;20218;-72
2022/03/26 09:56:28;;;;;;;34.22;19.05;;;13.80;99.90;;;;;;4996409;28;20230;-74
2022/03/26 09:59:24;;;;;;;31.63;19.88;;;13.80;99.90;;;;;;4994910;28;20358;-77
2022/03/26 10:02:12;;;;;;;31.90;20.00;;;13.70;99.90;;;;;;5008692;28;20339;-73
2022/03/26 10:05:02;;;;;;;31.25;18.95;;;13.60;99.90;;;;;;5007313;28;20261;-73
2022/03/26 10:07:51;;;;;;;33.53;19.95;;;13.60;99.90;;;;;;4995652;28;20218;-72
2022/03/26 10:10:48;;;;;;;37.20;19.67;;;13.60;99.90;;;;;;4993924;28;20737;-72
2022/03/26 10:13:38;;;;;;;31.40;19.67;;;13.20;99.90;;;;;;4994731;28;20288;-74
2022/03/26 10:16:29;;;;;;;30.10;19.20;;;13.10;99.90;;;;;;4996086;28;20223;-72
2022/03/26 10:19:22;;;;;;;32.22;19.45;;;13.40;99.90;;;;;;5000982;28;20397;-73
2022/03/26 10:22:24;;;;;;;27.58;18.17;;;13.30;99.90;;;;;;5009295;28;20214;-72
2022/03/26 10:25:14;;;;;;;26.83;18.20;;;13.00;99.90;;;;;;5007913;28;20217;-73
2022/03/26 10:28:03;;;;;;;34.53;18.77;;;12.80;99.90;;;;;;5010189;28;20357;-72
2022/03/26 10:34:09;;;;;;;28.80;19.77;;;12.50;99.90;;;;;;5009520;28;20228;-76
2022/03/26 10:37:01;;;;;;;31.98;19.85;;;12.40;99.90;;;;;;5008066;28;20226;-75
2022/03/26 10:39:50;;;;;;;28.75;20.45;;;12.30;99.90;;;;;;4994849;28;20235;-73
2022/03/26 10:42:39;;;;;;;28.40;19.55;;;12.50;99.90;;;;;;5008700;28;20227;-73
2022/03/26 10:45:29;;;;;;;32.38;19.45;;;12.40;99.90;;;;;;4992220;28;20234;-71
2022/03/26 10:48:25;;;;;;;30.35;18.40;;;12.60;99.90;;;;;;4996347;28;20239;-73
2022/03/26 10:51:15;;;;;;;35.13;19.88;;;12.50;99.90;;;;;;4996054;28;20685;-78
2022/03/26 10:54:10;;;;;;;31.90;20.63;;;12.50;99.90;;;;;;4998409;28;20218;-73
2022/03/26 10:56:59;;;;;;;33.83;20.80;;;12.60;99.90;;;;;;5011642;28;20288;-78
2022/03/26 10:59:50;;;;;;;31.35;20.17;;;12.50;99.90;;;;;;4993033;28;20241;-75
2022/03/26 11:02:39;;;;;;;30.20;18.92;;;12.40;99.90;;;;;;4994529;28;20280;-74
2022/03/26 11:05:30;;;;;;;27.60;18.92;;;12.50;99.90;;;;;;4995256;28;20237;-75
2022/03/26 11:08:25;;;;;;;26.52;17.88;;;12.40;99.90;;;;;;4992889;28;20222;-76
2022/03/26 11:11:14;;;;;;;29.15;18.83;;;12.50;99.90;;;;;;4995467;28;20248;-78
2022/03/26 11:14:06;;;;;;;31.50;17.77;;;12.50;99.90;;;;;;5011340;28;20218;-76
2022/03/26 11:17:09;;;;;;;25.40;17.08;;;12.60;99.90;;;;;;4993352;28;20230;-74
2022/03/26 11:20:15;;;;;;;31.13;18.75;;;12.70;99.90;;;;;;4997226;28;20230;-75
2022/03/26 11:23:18;;;;;;;31.92;17.27;;;12.60;99.90;;;;;;4990297;28;20581;-76
2022/03/26 11:26:33;;;;;;;26.02;16.70;;;12.70;99.90;;;;;;4998671;28;20285;-75
2022/03/26 11:29:54;;;;;;;36.83;17.50;;;12.80;99.90;;;;;;4996134;28;20625;-77
2022/03/26 11:32:45;;;;;;;30.05;16.83;;;12.80;99.90;;;;;;5011176;28;20230;-76
2022/03/26 11:35:38;;;;;;;30.60;17.25;;;13.00;99.90;;;;;;5000501;28;20223;-76
2022/03/26 11:38:32;;;;;;;34.85;16.17;;;13.00;99.90;;;;;;4999182;28;20372;-77
2022/03/26 11:41:32;;;;;;;28.95;16.33;;;13.00;99.90;;;;;;5004092;28;20231;-76
2022/03/26 11:44:22;;;;;;;24.20;15.77;;;13.20;99.90;;;;;;4994914;28;20222;-78
2022/03/26 11:53:35;;;;;;;25.30;14.48;;;13.00;99.90;;;;;;5013555;28;20221;-77
2022/03/26 11:56:26;;;;;;;25.30;14.23;;;12.90;99.90;;;;;;4993240;28;20562;-77
2022/03/26 11:59:30;;;;;;;25.02;15.40;;;12.90;99.90;;;;;;4993021;28;20226;-77
2022/03/26 12:02:24;;;;;;;28.20;14.50;;;12.70;99.90;;;;;;4992568;28;20739;-79
2022/03/26 12:08:35;;;;;;;23.48;13.93;;;12.70;99.90;;;;;;4998986;28;20672;-76
2022/03/26 12:11:26;;;;;;;26.00;14.32;;;12.60;99.90;;;;;;5013454;28;20225;-76
2022/03/26 12:14:15;;;;;;;29.13;15.38;;;12.50;99.90;;;;;;4999513;28;20277;-77
2022/03/26 12:17:05;;;;;;;22.95;14.80;;;12.50;99.90;;;;;;5001018;28;20237;-77
2022/03/26 12:19:53;;;;;;;24.58;14.30;;;12.60;99.90;;;;;;5012403;28;20240;-76
2022/03/26 12:22:43;;;;;;;26.63;15.02;;;12.70;99.90;;;;;;4997572;28;20222;-76
2022/03/26 12:25:37;;;;;;;23.33;13.65;;;12.70;99.90;;;;;;4995444;28;20571;-77
2022/03/26 12:28:33;;;;;;;21.15;14.80;;;12.70;99.90;;;;;;4998963;28;20295;-77
2022/03/26 12:31:24;;;;;;;22.67;14.23;;;12.60;99.90;;;;;;5011945;28;20233;-77
2022/03/26 12:34:22;;;;;;;24.45;14.98;;;12.50;99.90;;;;;;5013071;28;20238;-77
2022/03/26 12:37:11;;;;;;;25.77;14.85;;;12.50;99.90;;;;;;4998347;28;20225;-77
2022/03/26 12:40:01;;;;;;;25.13;14.98;;;12.50;99.90;;;;;;5010871;28;20299;-77
2022/03/26 12:42:55;;;;;;;22.98;14.43;;;12.50;99.90;;;;;;5007909;28;20235;-77
2022/03/26 12:45:44;;;;;;;27.33;14.52;;;12.70;99.90;;;;;;4998681;28;20229;-76
2022/03/26 12:48:32;;;;;;;25.42;14.60;;;12.50;99.90;;;;;;4996408;28;20231;-77
2022/03/26 12:51:23;;;;;;;21.48;13.93;;;12.50;99.90;;;;;;5007312;28;20218;-78
2022/03/26 12:54:14;;;;;;;20.27;14.27;;;12.30;99.90;;;;;;5010541;28;20844;-78
2022/03/26 12:57:03;;;;;;;19.73;13.75;;;12.30;99.90;;;;;;5010480;28;20222;-77
2022/03/26 12:59:52;;;;;;;20.15;13.93;;;12.30;99.90;;;;;;4995123;28;20218;-77
2022/03/26 13:02:41;;;;;;;19.88;12.55;;;12.20;99.90;;;;;;5009878;28;20358;-78
2022/03/26 13:05:31;;;;;;;20.70;12.30;;;12.20;99.90;;;;;;5013029;28;20724;-77
2022/03/26 13:08:21;;;;;;;19.00;11.27;;;12.10;99.90;;;;;;4997399;28;20226;-77
2022/03/26 13:21:26;;;;;;;17.48;11.55;;;12.40;99.90;;;;;;5070505;27;20664;-76
2022/03/26 13:24:17;;;;;;;16.40;10.93;;;12.40;99.90;;;;;;5037594;28;20228;-77
2022/03/26 13:27:07;;;;;;;19.50;10.35;;;12.40;99.90;;;;;;5048943;28;20240;-80
2022/03/26 13:41:15;;;;;;;19.73;10.35;;;12.30;99.90;;;;;;5046392;27;21201;-75
2022/03/26 13:44:06;;;;;;;20.45;11.10;;;12.30;99.90;;;;;;5065822;28;20222;-77
2022/03/26 13:46:54;;;;;;;19.10;10.55;;;12.40;99.90;;;;;;5064794;28;20227;-78
2022/03/26 13:49:43;;;;;;;16.02;10.20;;;12.50;99.90;;;;;;5062725;28;20258;-77
2022/03/26 13:52:37;;;;;;;16.65;11.07;;;12.50;99.90;;;;;;5061858;28;20274;-77
2022/03/26 13:55:31;;;;;;;17.85;11.20;;;12.50;99.90;;;;;;5054534;28;20253;-77
2022/03/26 13:58:23;;;;;;;18.08;11.52;;;12.60;99.90;;;;;;5075919;28;20307;-77
2022/03/26 14:01:12;;;;;;;20.02;11.52;;;12.80;99.90;;;;;;5074455;28;20222;-77
2022/03/26 14:04:01;;;;;;;19.35;10.32;;;12.70;99.90;;;;;;5076282;28;20301;-77
2022/03/26 14:06:49;;;;;;;19.80;11.05;;;12.60;99.90;;;;;;5056679;28;20242;-78
2022/03/26 14:09:38;;;;;;;18.50;11.15;;;12.60;99.90;;;;;;5086008;28;20228;-78
2022/03/26 14:12:27;;;;;;;16.50;10.90;;;12.60;99.90;;;;;;5062300;28;20220;-76
2022/03/26 14:15:17;;;;;;;19.50;11.38;;;12.60;99.90;;;;;;5059984;28;20239;-77
2022/03/26 14:18:07;;;;;;;19.23;11.88;;;12.60;99.90;;;;;;5079498;28;20219;-77
2022/03/26 14:20:56;;;;;;;20.65;11.60;;;12.50;99.90;;;;;;5077583;28;20563;-74
2022/03/26 14:23:45;;;;;;;18.50;10.68;;;12.40;99.90;;;;;;5072644;28;20227;-77
2022/03/26 14:26:34;;;;;;;16.98;10.38;;;12.40;99.90;;;;;;5072260;28;20223;-77
2022/03/26 14:29:22;;;;;;;15.80;10.68;;;12.40;99.90;;;;;;5060954;28;20254;-77
2022/03/26 14:32:13;;;;;;;16.10;9.93;;;12.50;99.90;;;;;;5055965;28;20227;-76
2022/03/26 14:35:02;;;;;;;10.95;9.05;;;12.40;99.90;;;;;;5059505;28;20234;-76
2022/03/26 14:37:57;;;;;;;16.83;9.73;;;12.30;99.90;;;;;;5075723;28;20340;-77
2022/03/26 14:40:46;;;;;;;18.45;9.60;;;12.30;99.90;;;;;;5065926;28;20360;-77
2022/03/26 14:43:34;;;;;;;17.52;10.57;;;12.50;99.90;;;;;;5070529;28;20220;-76
2022/03/26 14:46:23;;;;;;;18.38;10.90;;;12.40;99.90;;;;;;5088264;28;20223;-76
2022/03/26 14:49:13;;;;;;;20.60;10.55;;;12.30;99.90;;;;;;5074067;28;20219;-76
2022/03/26 14:52:02;;;;;;;15.20;10.82;;;12.20;99.90;;;;;;5055549;28;20707;-75
2022/03/26 14:54:51;;;;;;;16.85;10.43;;;12.20;99.90;;;;;;5047385;28;21129;-76
2022/03/26 14:57:41;;;;;;;17.95;10.50;;;12.20;99.90;;;;;;5060015;28;20228;-76
2022/03/26 15:00:29;;;;;;;18.25;9.95;;;12.30;99.90;;;;;;5062307;28;20224;-77
2022/03/26 15:03:18;;;;;;;18.20;11.05;;;12.30;99.90;;;;;;5064570;28;20220;-76
2022/03/26 15:06:10;;;;;;;19.08;11.73;;;12.10;99.90;;;;;;5061110;28;20307;-76